Time;durP1;ratioP1;P1;durP2;ratioP2;P2;SDS_P1;SDS_P2;PMS_P1;PMS_P2;Temp;Humidity;BMP_temperature;BMP_pressure;BME280_temperature;BME280_humidity;BME280_pressure;Samples;Min_cycle;Max_cycle;Signal;HPM_P1;HPM_P2
2022/12/28 00:00:13;;;;;;;4.93;1.93;;;4.50;99.90;;;;;;4169741;28;20946;-79
2022/12/28 00:02:15;;;;;;;6.53;2.33;;;4.30;99.90;;;;;;4155055;28;20532;-79
2022/12/28 00:04:17;;;;;;;3.50;2.03;;;4.30;99.90;;;;;;4158931;28;20474;-79
2022/12/28 00:06:23;;;;;;;4.90;2.00;;;4.30;99.90;;;;;;4169011;28;20457;-78
2022/12/28 00:08:25;;;;;;;4.80;2.30;;;4.40;99.90;;;;;;4167170;28;21051;-79
2022/12/28 00:10:27;;;;;;;4.53;1.60;;;4.30;99.90;;;;;;4166558;28;20834;-79
2022/12/28 00:12:29;;;;;;;7.10;2.10;;;4.30;99.90;;;;;;4173011;28;21031;-79
2022/12/28 00:14:31;;;;;;;4.37;1.97;;;4.30;99.90;;;;;;4153134;28;20482;-79
2022/12/28 00:16:35;;;;;;;7.77;2.10;;;4.30;99.90;;;;;;4155542;28;20458;-79
2022/12/28 00:18:37;;;;;;;3.17;2.00;;;4.30;99.90;;;;;;4156140;28;20496;-79
2022/12/28 00:20:42;;;;;;;6.47;2.23;;;4.20;99.90;;;;;;4157023;28;20461;-79
2022/12/28 00:22:45;;;;;;;6.53;2.23;;;4.20;99.90;;;;;;4177483;28;20491;-79
2022/12/28 00:24:47;;;;;;;5.90;2.20;;;4.20;99.90;;;;;;4178625;28;20538;-79
2022/12/28 00:26:50;;;;;;;4.60;2.67;;;4.30;99.90;;;;;;4155792;28;21041;-79
2022/12/28 00:28:52;;;;;;;5.80;2.67;;;4.20;99.90;;;;;;4166331;28;20527;-79
2022/12/28 00:30:57;;;;;;;5.33;2.00;;;4.20;99.90;;;;;;4173215;28;20450;-79
2022/12/28 00:32:59;;;;;;;11.53;2.60;;;4.10;99.90;;;;;;4172724;28;20487;-80
2022/12/28 00:35:01;;;;;;;5.77;2.13;;;4.10;99.90;;;;;;4157209;28;20442;-79
2022/12/28 00:37:03;;;;;;;6.30;2.50;;;4.10;99.90;;;;;;4178204;28;20499;-79
2022/12/28 00:39:06;;;;;;;8.30;2.13;;;4.10;99.90;;;;;;4148827;28;20826;-80
2022/12/28 00:41:09;;;;;;;6.70;2.40;;;4.10;99.90;;;;;;4172933;28;20453;-79
2022/12/28 00:43:11;;;;;;;7.07;2.53;;;4.10;99.90;;;;;;4168901;28;20460;-79
2022/12/28 00:45:13;;;;;;;4.03;1.93;;;4.10;99.90;;;;;;4161435;28;20892;-79
2022/12/28 00:47:15;;;;;;;4.03;1.90;;;4.00;99.90;;;;;;4154968;28;20458;-79
2022/12/28 00:49:17;;;;;;;3.73;2.03;;;4.00;99.90;;;;;;4166348;28;20521;-79
2022/12/28 00:51:20;;;;;;;2.67;1.60;;;4.10;99.90;;;;;;4151158;28;20466;-79
2022/12/28 00:53:22;;;;;;;8.67;2.23;;;4.10;99.90;;;;;;4170954;28;20441;-79
2022/12/28 00:55:25;;;;;;;6.97;2.80;;;4.10;99.90;;;;;;4166284;28;20481;-79
2022/12/28 00:57:27;;;;;;;6.10;1.77;;;4.00;99.90;;;;;;4175771;28;20960;-79
2022/12/28 00:59:29;;;;;;;8.77;2.33;;;4.10;99.90;;;;;;4177197;28;20855;-79
2022/12/28 01:01:31;;;;;;;8.70;2.33;;;4.00;99.90;;;;;;4176133;28;20975;-79
2022/12/28 01:03:33;;;;;;;2.83;1.60;;;4.00;99.90;;;;;;4178471;28;20528;-79
2022/12/28 01:05:38;;;;;;;6.23;1.93;;;4.00;99.90;;;;;;4170522;28;20541;-79
2022/12/28 01:07:40;;;;;;;4.93;1.73;;;4.00;99.90;;;;;;4173107;28;20460;-79
2022/12/28 01:09:42;;;;;;;4.83;1.70;;;4.00;99.90;;;;;;4175489;28;20502;-79
2022/12/28 01:11:46;;;;;;;7.43;2.13;;;4.30;99.90;;;;;;4177184;28;20465;-79
2022/12/28 01:13:49;;;;;;;3.73;1.80;;;4.00;99.90;;;;;;4170204;28;20497;-79
2022/12/28 01:15:50;;;;;;;5.47;2.00;;;4.00;99.90;;;;;;4173620;28;20502;-79
2022/12/28 01:17:52;;;;;;;5.40;1.90;;;4.00;99.90;;;;;;4160738;28;20506;-79
2022/12/28 01:19:54;;;;;;;4.97;1.80;;;3.90;99.90;;;;;;4161855;28;20466;-79
2022/12/28 01:21:57;;;;;;;6.37;1.70;;;3.90;99.90;;;;;;4178430;28;20842;-79
2022/12/28 01:24:01;;;;;;;4.60;1.70;;;4.00;99.90;;;;;;4163252;28;20470;-79
2022/12/28 01:26:04;;;;;;;6.57;1.73;;;3.90;99.90;;;;;;4177671;28;21017;-80
2022/12/28 01:28:10;;;;;;;8.50;2.37;;;3.90;99.90;;;;;;4175516;28;20512;-79
2022/12/28 01:30:14;;;;;;;7.80;1.83;;;3.90;99.90;;;;;;4157348;28;20485;-79
2022/12/28 01:32:16;;;;;;;6.63;1.93;;;3.90;99.90;;;;;;4175790;28;20453;-79
2022/12/28 01:34:18;;;;;;;4.00;1.70;;;3.80;99.90;;;;;;4171573;28;20493;-79
2022/12/28 01:36:22;;;;;;;4.13;1.90;;;3.80;99.90;;;;;;4172039;28;21063;-79
2022/12/28 01:38:24;;;;;;;3.20;1.70;;;3.80;99.90;;;;;;4166413;28;20572;-79
2022/12/28 01:40:26;;;;;;;5.40;1.73;;;3.80;99.90;;;;;;4174646;28;20497;-79
2022/12/28 01:42:28;;;;;;;6.00;1.43;;;3.80;99.90;;;;;;4177819;28;21175;-80
2022/12/28 01:44:45;;;;;;;4.57;1.93;;;3.80;99.90;;;;;;4178931;28;20571;-79
2022/12/28 01:46:50;;;;;;;4.53;1.83;;;3.80;99.90;;;;;;4183524;28;20456;-79
2022/12/28 01:48:59;;;;;;;12.17;2.90;;;3.80;99.90;;;;;;4173773;28;21023;-79
2022/12/28 01:51:01;;;;;;;7.07;2.30;;;3.80;99.90;;;;;;4174246;28;20463;-79
2022/12/28 01:53:05;;;;;;;6.13;1.80;;;3.70;99.90;;;;;;4175368;28;20462;-79
2022/12/28 01:55:11;;;;;;;6.13;1.70;;;3.70;99.90;;;;;;4173003;28;20488;-79
2022/12/28 01:57:15;;;;;;;5.13;1.77;;;3.70;99.90;;;;;;4174269;28;20549;-79
2022/12/28 01:59:19;;;;;;;6.73;1.97;;;3.70;99.90;;;;;;4170114;28;20505;-79
2022/12/28 02:01:22;;;;;;;4.70;1.60;;;3.70;99.90;;;;;;4169795;28;20570;-79
2022/12/28 02:03:27;;;;;;;6.80;2.43;;;3.60;99.90;;;;;;4172722;28;20518;-79
2022/12/28 02:05:32;;;;;;;4.70;1.40;;;3.60;99.90;;;;;;4174824;28;20480;-79
2022/12/28 02:07:43;;;;;;;3.83;1.57;;;3.60;99.90;;;;;;4174749;28;20456;-79
2022/12/28 02:09:46;;;;;;;4.03;1.63;;;3.60;99.90;;;;;;4168157;28;20461;-79
2022/12/28 02:11:49;;;;;;;4.00;1.70;;;3.50;99.90;;;;;;4174850;28;20498;-79
2022/12/28 02:13:52;;;;;;;4.23;1.40;;;3.50;99.90;;;;;;4166731;28;20497;-79
2022/12/28 02:15:54;;;;;;;3.13;1.50;;;3.50;99.90;;;;;;4172222;28;20461;-79
2022/12/28 02:17:58;;;;;;;5.13;1.50;;;3.50;99.90;;;;;;4175523;28;20489;-79
2022/12/28 02:20:01;;;;;;;3.20;1.60;;;3.50;99.90;;;;;;4179390;28;20453;-79
2022/12/28 02:22:32;;;;;;;3.63;1.47;;;3.50;99.90;;;;;;4173170;28;20519;-79
2022/12/28 02:24:58;;;;;;;3.33;1.43;;;3.50;99.90;;;;;;4168245;28;20496;-79
2022/12/28 02:27:06;;;;;;;7.37;1.70;;;3.40;99.90;;;;;;4169521;28;20482;-79
2022/12/28 02:29:35;;;;;;;7.20;1.50;;;3.50;99.90;;;;;;4168436;28;20497;-79
2022/12/28 02:31:43;;;;;;;8.73;1.83;;;3.40;99.90;;;;;;4170002;28;20472;-79
2022/12/28 02:33:54;;;;;;;4.97;1.30;;;3.40;99.90;;;;;;4173234;28;20465;-79
2022/12/28 02:36:00;;;;;;;4.73;1.70;;;3.40;99.90;;;;;;4178864;28;20454;-79
2022/12/28 02:38:08;;;;;;;5.43;1.60;;;3.40;99.90;;;;;;4186107;28;20491;-79
2022/12/28 02:40:16;;;;;;;8.63;1.77;;;3.40;99.90;;;;;;4181900;28;20544;-79
2022/12/28 02:42:20;;;;;;;4.50;1.43;;;3.40;99.90;;;;;;4165611;28;20527;-79
2022/12/28 02:51:51;;;;;;;5.13;1.50;;;3.40;99.90;;;;;;4174892;28;20965;-79
2022/12/28 02:56:49;;;;;;;3.30;1.50;;;3.40;99.90;;;;;;4169390;28;20551;-79
2022/12/28 02:59:27;;;;;;;3.37;1.50;;;3.40;99.90;;;;;;4171516;28;20542;-79
2022/12/28 03:01:53;;;;;;;4.67;1.57;;;3.40;99.90;;;;;;4168845;28;20487;-79
2022/12/28 03:04:05;;;;;;;3.67;1.50;;;3.40;99.90;;;;;;4154573;28;20647;-77
2022/12/28 03:08:43;;;;;;;8.37;1.97;;;3.40;99.90;;;;;;4155369;28;20474;-79
2022/12/28 03:10:49;;;;;;;6.83;2.00;;;3.40;99.90;;;;;;4155054;28;20450;-79
2022/12/28 03:12:58;;;;;;;7.93;1.73;;;3.40;99.90;;;;;;4149422;28;20823;-79
2022/12/28 03:15:06;;;;;;;2.97;1.60;;;3.40;99.90;;;;;;4174835;28;20523;-79
2022/12/28 03:31:27;;;;;;;7.83;1.87;;;3.60;99.90;;;;;;4160181;28;21539;-79
2022/12/28 03:33:31;;;;;;;4.57;1.80;;;3.60;99.90;;;;;;4173223;28;20534;-79
2022/12/28 03:35:40;;;;;;;5.77;1.80;;;3.60;99.90;;;;;;4177185;28;20479;-79
2022/12/28 03:37:47;;;;;;;4.67;1.47;;;3.70;99.90;;;;;;4175596;28;20444;-79
2022/12/28 03:39:53;;;;;;;6.47;2.03;;;3.90;99.90;;;;;;4159588;28;21035;-79
2022/12/28 03:44:25;;;;;;;5.20;1.80;;;3.70;99.90;;;;;;4166847;28;20735;-79
2022/12/28 03:46:30;;;;;;;6.10;2.10;;;3.70;99.90;;;;;;4177128;28;20474;-79
2022/12/28 03:48:36;;;;;;;5.27;2.03;;;3.80;99.90;;;;;;4181764;28;20504;-79
2022/12/28 03:50:40;;;;;;;8.73;1.80;;;3.80;99.90;;;;;;4163490;28;20561;-79
2022/12/28 03:52:42;;;;;;;4.70;1.80;;;3.80;99.90;;;;;;4178081;28;20488;-79
2022/12/28 03:54:44;;;;;;;3.40;2.10;;;3.80;99.90;;;;;;4182277;28;20837;-80
2022/12/28 03:56:49;;;;;;;11.40;2.20;;;3.80;99.90;;;;;;4176251;28;20450;-79
2022/12/28 03:58:51;;;;;;;6.63;2.20;;;3.80;99.90;;;;;;4162642;28;20489;-79
2022/12/28 04:00:53;;;;;;;5.83;2.13;;;3.80;99.90;;;;;;4163958;28;20470;-79
2022/12/28 04:02:55;;;;;;;6.13;1.90;;;3.80;99.90;;;;;;4169733;28;20894;-79
2022/12/28 04:04:59;;;;;;;7.73;2.10;;;3.80;99.90;;;;;;4161254;28;20479;-79
2022/12/28 04:07:01;;;;;;;9.73;2.43;;;3.80;99.90;;;;;;4158069;28;20454;-79
2022/12/28 04:09:03;;;;;;;5.87;2.07;;;3.80;99.90;;;;;;4175347;28;20465;-79
2022/12/28 04:11:06;;;;;;;6.03;2.10;;;3.90;99.90;;;;;;4173803;28;20450;-80
2022/12/28 04:13:08;;;;;;;4.23;1.90;;;3.80;99.90;;;;;;4169796;28;20454;-79
2022/12/28 04:15:10;;;;;;;4.27;2.07;;;3.80;99.90;;;;;;4164524;28;21173;-79
2022/12/28 04:17:12;;;;;;;7.40;2.40;;;3.90;99.90;;;;;;4161268;28;20485;-79
2022/12/28 04:19:14;;;;;;;5.53;2.80;;;3.90;99.90;;;;;;4169449;28;20473;-79
2022/12/28 04:21:18;;;;;;;5.20;1.90;;;3.90;99.90;;;;;;4156187;28;20976;-79
2022/12/28 04:23:20;;;;;;;5.27;2.20;;;3.90;99.90;;;;;;4170738;28;20523;-79
2022/12/28 04:25:22;;;;;;;4.63;2.10;;;3.90;99.90;;;;;;4157050;28;20999;-78
2022/12/28 04:27:24;;;;;;;7.87;2.37;;;3.90;99.90;;;;;;4147119;28;20554;-78
2022/12/28 04:29:26;;;;;;;7.43;2.07;;;3.90;99.90;;;;;;4159823;28;21045;-79
2022/12/28 04:31:28;;;;;;;8.53;2.43;;;3.90;99.90;;;;;;4174397;28;20465;-78
2022/12/28 04:33:33;;;;;;;6.83;2.00;;;4.00;99.90;;;;;;4173214;28;20491;-79
2022/12/28 04:35:35;;;;;;;4.93;2.17;;;3.90;99.90;;;;;;4182173;28;20496;-79
2022/12/28 04:37:38;;;;;;;3.03;1.60;;;3.90;99.90;;;;;;4179825;28;20480;-79
2022/12/28 04:39:40;;;;;;;4.77;1.87;;;3.90;99.90;;;;;;4178106;28;20858;-79
2022/12/28 04:41:42;;;;;;;6.93;2.40;;;4.00;99.90;;;;;;4161424;28;20513;-79
2022/12/28 04:43:44;;;;;;;7.87;2.00;;;4.10;99.90;;;;;;4173980;28;20453;-79
2022/12/28 04:45:56;;;;;;;6.40;1.93;;;4.00;99.90;;;;;;4173463;28;20864;-79
2022/12/28 04:47:58;;;;;;;5.73;1.70;;;4.00;99.90;;;;;;4160914;28;20576;-79
2022/12/28 04:50:00;;;;;;;4.43;2.00;;;4.00;99.90;;;;;;4168556;28;20959;-79
2022/12/28 04:52:02;;;;;;;4.93;1.80;;;4.00;99.90;;;;;;4174433;28;20535;-79
2022/12/28 04:54:06;;;;;;;5.63;1.80;;;4.00;99.90;;;;;;4173068;28;20543;-79
2022/12/28 04:56:09;;;;;;;4.53;1.73;;;4.20;99.90;;;;;;4180509;28;20444;-79
2022/12/28 04:58:11;;;;;;;3.07;1.60;;;4.00;99.90;;;;;;4172984;28;20478;-79
2022/12/28 05:00:14;;;;;;;7.47;1.80;;;4.10;99.90;;;;;;4179927;28;20515;-80
2022/12/28 05:02:16;;;;;;;10.80;2.03;;;4.10;99.90;;;;;;4168394;28;20459;-79
2022/12/28 05:04:18;;;;;;;5.90;1.83;;;4.10;99.90;;;;;;4176529;28;20499;-79
2022/12/28 05:06:22;;;;;;;4.63;1.70;;;4.20;99.90;;;;;;4173442;28;20512;-79
2022/12/28 05:08:24;;;;;;;5.67;1.90;;;4.20;99.90;;;;;;4157065;28;20479;-79
2022/12/28 05:10:28;;;;;;;5.43;2.10;;;4.20;99.90;;;;;;4173198;28;20450;-79
2022/12/28 05:12:30;;;;;;;5.63;1.90;;;4.30;99.90;;;;;;4147118;28;20466;-79
2022/12/28 05:14:32;;;;;;;7.53;1.70;;;4.30;99.90;;;;;;4163578;28;20469;-79
2022/12/28 05:16:34;;;;;;;6.00;1.70;;;4.30;99.90;;;;;;4162602;28;20524;-79
2022/12/28 05:18:36;;;;;;;5.20;1.80;;;4.30;99.90;;;;;;4182609;28;20461;-79
2022/12/28 05:20:38;;;;;;;3.90;1.90;;;4.00;99.90;;;;;;4177289;28;20815;-79
2022/12/28 05:22:40;;;;;;;2.67;1.70;;;4.30;99.90;;;;;;4174979;28;20495;-79
2022/12/28 05:24:42;;;;;;;4.47;1.80;;;4.30;99.90;;;;;;4174373;28;20523;-79
2022/12/28 05:26:45;;;;;;;5.43;2.17;;;4.30;99.90;;;;;;4169145;28;20500;-79
2022/12/28 05:28:47;;;;;;;4.93;1.43;;;4.30;99.90;;;;;;4172692;28;20471;-79
2022/12/28 05:30:49;;;;;;;3.23;1.50;;;4.30;99.90;;;;;;4150254;28;20458;-79
2022/12/28 05:32:51;;;;;;;4.33;2.10;;;4.40;99.90;;;;;;4173232;28;20543;-79
2022/12/28 05:34:53;;;;;;;5.10;2.07;;;4.40;99.90;;;;;;4177678;28;20456;-79
2022/12/28 05:36:55;;;;;;;5.47;1.43;;;4.40;99.90;;;;;;4180459;28;20449;-79
2022/12/28 05:38:57;;;;;;;3.67;1.73;;;4.40;99.90;;;;;;4164781;28;20581;-79
2022/12/28 05:41:05;;;;;;;5.10;1.67;;;4.50;99.90;;;;;;4184340;28;20454;-79
2022/12/28 05:43:09;;;;;;;5.07;1.60;;;4.40;99.90;;;;;;4175266;28;20468;-79
2022/12/28 05:45:11;;;;;;;4.30;1.73;;;4.50;99.90;;;;;;4156210;28;20479;-79
2022/12/28 05:47:13;;;;;;;4.70;1.77;;;4.50;99.90;;;;;;4175509;28;20884;-80
2022/12/28 05:49:15;;;;;;;4.77;1.90;;;4.50;99.90;;;;;;4180573;28;20485;-79
2022/12/28 05:51:19;;;;;;;5.00;1.90;;;4.50;99.90;;;;;;4159839;28;20475;-79
2022/12/28 05:53:21;;;;;;;5.23;1.70;;;4.50;99.90;;;;;;4177816;28;20465;-79
2022/12/28 05:55:23;;;;;;;5.57;1.70;;;4.50;99.90;;;;;;4171093;28;21216;-80
2022/12/28 05:57:25;;;;;;;5.17;1.50;;;4.50;99.90;;;;;;4173699;28;20465;-79
2022/12/28 05:59:28;;;;;;;3.70;1.50;;;4.50;99.90;;;;;;4176985;28;21042;-79
2022/12/28 06:01:33;;;;;;;4.23;1.83;;;4.60;99.90;;;;;;4168810;28;20466;-79
2022/12/28 06:03:35;;;;;;;4.73;1.80;;;4.60;99.90;;;;;;4152267;28;20455;-79
2022/12/28 06:05:37;;;;;;;4.43;1.43;;;4.60;99.90;;;;;;4171097;28;20562;-81
2022/12/28 06:07:39;;;;;;;5.23;1.33;;;4.80;99.90;;;;;;4153806;28;20463;-79
2022/12/28 06:09:41;;;;;;;10.73;2.17;;;4.60;99.90;;;;;;4172431;28;20468;-80
2022/12/28 06:11:44;;;;;;;3.97;1.47;;;4.60;99.90;;;;;;4178515;28;21215;-79
2022/12/28 06:13:46;;;;;;;3.93;1.47;;;4.70;99.90;;;;;;4179466;28;20454;-79
2022/12/28 06:15:50;;;;;;;7.13;1.63;;;4.70;99.90;;;;;;4173854;28;20938;-79
2022/12/28 06:17:53;;;;;;;7.03;1.80;;;4.70;99.90;;;;;;4175598;28;20917;-79
2022/12/28 06:19:55;;;;;;;6.80;1.90;;;4.60;99.90;;;;;;4170635;28;20489;-79
2022/12/28 06:21:57;;;;;;;4.37;1.13;;;4.70;99.90;;;;;;4158457;28;20883;-80
2022/12/28 06:24:00;;;;;;;3.83;1.60;;;4.70;99.90;;;;;;4172981;28;20446;-80
2022/12/28 06:26:03;;;;;;;5.87;1.70;;;4.70;99.90;;;;;;4156699;28;20548;-80
2022/12/28 06:28:05;;;;;;;4.10;1.77;;;4.70;99.90;;;;;;4176768;28;20472;-80
2022/12/28 06:30:09;;;;;;;3.20;1.77;;;4.70;99.90;;;;;;4176341;28;20458;-79
2022/12/28 06:32:12;;;;;;;2.77;1.30;;;4.70;99.90;;;;;;4161290;28;21046;-79
2022/12/28 06:34:14;;;;;;;2.30;1.23;;;4.70;99.90;;;;;;4151415;28;20459;-79
2022/12/28 06:36:18;;;;;;;4.03;1.53;;;4.70;99.90;;;;;;4177013;28;20445;-78
2022/12/28 06:38:20;;;;;;;2.47;1.40;;;4.80;99.90;;;;;;4161387;28;21005;-78
2022/12/28 06:40:22;;;;;;;2.50;1.53;;;4.80;99.90;;;;;;4157735;28;20487;-80
2022/12/28 06:42:24;;;;;;;2.97;1.50;;;4.80;99.90;;;;;;4169783;28;20453;-80
2022/12/28 06:44:26;;;;;;;7.80;1.60;;;4.80;99.90;;;;;;4172437;28;20457;-79
2022/12/28 06:46:29;;;;;;;4.67;1.37;;;4.80;99.90;;;;;;4175582;28;20486;-80
2022/12/28 06:48:34;;;;;;;8.93;3.13;;;4.80;99.90;;;;;;4152530;28;20586;-80
2022/12/28 06:50:36;;;;;;;8.80;2.80;;;4.90;99.90;;;;;;4169985;28;20788;-79
2022/12/28 06:52:41;;;;;;;3.27;1.50;;;4.90;99.90;;;;;;4178249;28;20485;-79
2022/12/28 06:54:42;;;;;;;2.20;1.30;;;4.90;99.90;;;;;;4173235;28;20525;-79
2022/12/28 06:56:44;;;;;;;15.93;1.87;;;5.10;99.90;;;;;;4149978;28;20521;-79
2022/12/28 06:58:48;;;;;;;2.67;1.50;;;4.90;99.90;;;;;;4167298;28;20496;-79
2022/12/28 07:00:50;;;;;;;5.40;1.30;;;4.90;99.90;;;;;;4176511;28;20454;-79
2022/12/28 07:02:57;;;;;;;4.00;1.80;;;4.90;99.90;;;;;;4175939;28;20508;-79
2022/12/28 07:05:01;;;;;;;7.47;2.00;;;5.00;99.90;;;;;;4172126;28;20513;-79
2022/12/28 07:07:05;;;;;;;5.73;1.70;;;5.00;99.90;;;;;;4175773;28;21047;-81
2022/12/28 07:09:09;;;;;;;6.70;1.87;;;5.00;99.90;;;;;;4175855;28;21110;-79
2022/12/28 07:11:13;;;;;;;8.37;1.83;;;5.00;99.90;;;;;;4179763;28;20450;-78
2022/12/28 07:13:15;;;;;;;5.80;2.03;;;5.00;99.90;;;;;;4175805;28;20468;-79
2022/12/28 07:15:17;;;;;;;2.60;1.57;;;5.00;99.90;;;;;;4175054;28;20486;-81
2022/12/28 07:17:21;;;;;;;3.30;1.90;;;5.00;99.90;;;;;;4164840;28;20919;-81
2022/12/28 07:19:23;;;;;;;2.70;1.20;;;5.00;99.90;;;;;;4177735;28;20505;-80
2022/12/28 07:21:28;;;;;;;3.93;1.60;;;5.00;99.90;;;;;;4176931;28;20503;-80
2022/12/28 07:23:31;;;;;;;5.30;1.60;;;5.10;99.90;;;;;;4162488;28;21240;-81
2022/12/28 07:25:33;;;;;;;5.40;1.90;;;5.10;99.90;;;;;;4174283;28;20442;-81
2022/12/28 07:27:35;;;;;;;2.97;1.67;;;5.10;99.90;;;;;;4171689;28;20560;-81
2022/12/28 07:29:37;;;;;;;2.80;1.57;;;5.10;99.90;;;;;;4173655;28;21082;-81
2022/12/28 07:31:40;;;;;;;3.23;1.60;;;5.10;99.90;;;;;;4175105;28;20493;-81
2022/12/28 07:33:43;;;;;;;3.13;1.50;;;5.20;99.90;;;;;;4171932;28;20998;-81
2022/12/28 07:35:46;;;;;;;3.80;1.60;;;5.10;99.90;;;;;;4173869;28;20462;-81
2022/12/28 07:37:50;;;;;;;4.73;1.50;;;5.20;99.90;;;;;;4174307;28;20935;-81
2022/12/28 07:39:52;;;;;;;5.07;1.50;;;5.20;99.90;;;;;;4170494;28;20795;-81
2022/12/28 07:41:54;;;;;;;5.30;1.40;;;5.20;99.90;;;;;;4160819;28;20510;-81
2022/12/28 07:43:56;;;;;;;5.17;1.50;;;5.30;99.90;;;;;;4162340;28;20468;-81
2022/12/28 07:46:02;;;;;;;2.87;1.57;;;5.30;99.90;;;;;;4177145;28;20451;-81
2022/12/28 07:48:04;;;;;;;2.43;1.27;;;5.30;99.90;;;;;;4176903;28;20576;-81
2022/12/28 07:50:07;;;;;;;3.53;1.60;;;5.30;99.90;;;;;;4163119;28;20459;-80
2022/12/28 07:52:09;;;;;;;2.47;1.50;;;5.30;99.90;;;;;;4175877;28;20524;-81
2022/12/28 07:54:12;;;;;;;3.13;1.60;;;5.30;99.90;;;;;;4162755;28;21363;-79
2022/12/28 07:56:14;;;;;;;5.20;1.60;;;5.80;99.90;;;;;;4175408;28;20457;-82
2022/12/28 07:58:16;;;;;;;4.93;1.40;;;5.30;99.90;;;;;;4177049;28;20466;-81
2022/12/28 08:00:19;;;;;;;5.37;1.63;;;5.40;99.90;;;;;;4155500;28;20463;-81
2022/12/28 08:02:21;;;;;;;4.27;1.67;;;5.40;99.90;;;;;;4180756;28;20988;-80
2022/12/28 08:04:23;;;;;;;4.47;2.40;;;5.40;99.90;;;;;;4164310;28;20455;-80
2022/12/28 08:06:26;;;;;;;6.90;2.77;;;5.50;99.90;;;;;;4161068;28;20522;-81
2022/12/28 08:08:28;;;;;;;3.73;1.90;;;5.40;99.90;;;;;;4158106;28;21328;-81
2022/12/28 08:10:32;;;;;;;2.90;1.27;;;5.50;99.90;;;;;;4185729;28;20869;-81
2022/12/28 08:12:34;;;;;;;12.63;1.90;;;5.50;99.90;;;;;;4180470;28;20952;-81
2022/12/28 08:14:37;;;;;;;2.33;1.43;;;5.40;99.90;;;;;;4173006;28;20817;-81
2022/12/28 08:16:40;;;;;;;4.43;1.50;;;5.50;99.90;;;;;;4174855;28;21027;-81
2022/12/28 08:18:43;;;;;;;5.13;1.90;;;5.50;99.90;;;;;;4180872;28;20835;-81
2022/12/28 08:20:45;;;;;;;4.60;1.60;;;5.60;99.90;;;;;;4157702;28;20457;-81
2022/12/28 08:22:47;;;;;;;3.33;1.47;;;5.60;99.90;;;;;;4169162;28;20523;-81
2022/12/28 08:24:49;;;;;;;2.30;1.33;;;5.60;99.90;;;;;;4178356;28;20450;-80
2022/12/28 08:26:52;;;;;;;5.67;1.80;;;5.60;99.90;;;;;;4160239;28;21194;-81
2022/12/28 08:28:57;;;;;;;3.23;1.50;;;5.70;99.90;;;;;;4177825;28;20470;-81
2022/12/28 08:31:04;;;;;;;3.90;1.77;;;5.70;99.90;;;;;;4159742;28;20474;-81
2022/12/28 08:33:06;;;;;;;4.07;1.50;;;5.70;99.90;;;;;;4175854;28;20443;-81
2022/12/28 08:35:09;;;;;;;4.23;1.23;;;5.70;99.90;;;;;;4186323;28;20457;-81
2022/12/28 08:37:11;;;;;;;5.10;1.50;;;5.80;99.90;;;;;;4176552;28;20829;-81
2022/12/28 08:39:13;;;;;;;2.63;1.70;;;5.80;99.90;;;;;;4163789;28;20476;-81
2022/12/28 08:41:16;;;;;;;3.67;1.83;;;5.80;99.90;;;;;;4169900;28;20455;-82
2022/12/28 08:43:20;;;;;;;3.50;1.70;;;5.90;99.90;;;;;;4161429;28;20460;-81
2022/12/28 08:45:22;;;;;;;5.80;1.87;;;5.90;99.90;;;;;;4178384;28;20870;-80
2022/12/28 08:47:24;;;;;;;3.13;1.40;;;5.90;99.90;;;;;;4182824;28;20494;-82
2022/12/28 08:49:28;;;;;;;2.87;1.60;;;5.90;99.90;;;;;;4161871;28;20503;-80
2022/12/28 08:51:32;;;;;;;3.83;1.53;;;5.90;99.90;;;;;;4162838;28;20461;-80
2022/12/28 08:53:35;;;;;;;4.97;1.70;;;5.70;99.90;;;;;;4180116;28;20459;-81
2022/12/28 08:55:37;;;;;;;5.67;1.80;;;5.90;99.90;;;;;;4179333;28;20797;-81
2022/12/28 08:57:39;;;;;;;3.07;1.63;;;6.10;99.90;;;;;;4168323;28;20455;-81
2022/12/28 08:59:43;;;;;;;3.20;1.80;;;6.00;99.90;;;;;;4184424;28;20479;-81
2022/12/28 09:01:46;;;;;;;4.43;2.07;;;6.00;99.90;;;;;;4175508;28;20458;-81
2022/12/28 09:03:49;;;;;;;5.93;1.90;;;6.00;99.90;;;;;;4171704;28;20510;-81
2022/12/28 09:05:51;;;;;;;2.33;1.63;;;6.00;99.90;;;;;;4180286;28;20456;-81
2022/12/28 09:07:53;;;;;;;3.77;1.70;;;5.90;99.90;;;;;;4163982;28;20499;-81
2022/12/28 09:09:55;;;;;;;4.13;1.70;;;5.90;99.90;;;;;;4168748;28;20458;-81
2022/12/28 09:11:57;;;;;;;5.27;1.70;;;5.80;99.90;;;;;;4168245;28;20463;-81
2022/12/28 09:13:59;;;;;;;6.00;2.77;;;5.70;99.90;;;;;;4158902;28;20463;-81
2022/12/28 09:16:06;;;;;;;7.10;2.30;;;5.70;99.90;;;;;;4181896;28;20450;-81
2022/12/28 09:18:08;;;;;;;3.90;2.03;;;5.60;99.90;;;;;;4180200;28;21132;-80
2022/12/28 09:20:11;;;;;;;5.63;2.53;;;5.60;99.90;;;;;;4163336;28;20517;-81
2022/12/28 09:22:13;;;;;;;3.43;1.80;;;5.60;99.90;;;;;;4179605;28;20465;-81
2022/12/28 09:24:15;;;;;;;2.40;1.70;;;5.50;99.90;;;;;;4163131;28;20460;-81
2022/12/28 09:26:19;;;;;;;6.87;2.50;;;5.60;99.90;;;;;;4179053;28;20551;-81
2022/12/28 09:28:21;;;;;;;9.87;3.20;;;5.60;99.90;;;;;;4156972;28;21148;-81
2022/12/28 09:30:23;;;;;;;4.50;1.97;;;5.80;99.90;;;;;;4173652;28;20450;-80
2022/12/28 09:32:27;;;;;;;5.50;2.40;;;5.50;99.90;;;;;;4162085;28;20569;-79
2022/12/28 09:34:29;;;;;;;5.13;1.90;;;5.70;99.90;;;;;;4174130;28;20956;-82
2022/12/28 09:36:33;;;;;;;4.13;2.07;;;5.70;99.90;;;;;;4174047;28;20484;-80
2022/12/28 09:38:35;;;;;;;6.17;2.20;;;5.80;99.90;;;;;;4156125;28;20473;-80
2022/12/28 09:40:38;;;;;;;3.37;1.90;;;5.80;99.90;;;;;;4162902;28;20494;-80
2022/12/28 09:42:43;;;;;;;4.50;2.10;;;5.80;99.90;;;;;;4177371;28;20467;-80
2022/12/28 09:44:56;;;;;;;2.93;1.83;;;5.90;99.90;;;;;;4166053;28;20552;-81
2022/12/28 09:47:02;;;;;;;3.93;2.07;;;5.90;99.90;;;;;;4157034;28;20515;-81
2022/12/28 09:49:11;;;;;;;6.90;2.67;;;6.00;99.90;;;;;;4161234;28;20911;-81
2022/12/28 09:51:13;;;;;;;5.07;2.13;;;6.00;99.90;;;;;;4176509;28;20512;-81
2022/12/28 09:53:25;;;;;;;5.80;1.87;;;6.20;99.90;;;;;;4176337;28;20453;-81
2022/12/28 09:55:28;;;;;;;3.93;1.67;;;6.20;99.90;;;;;;4173355;28;20462;-82
2022/12/28 09:57:36;;;;;;;5.07;2.50;;;6.20;99.90;;;;;;4163630;28;21017;-79
2022/12/28 09:59:38;;;;;;;3.10;1.80;;;6.30;99.90;;;;;;4152806;28;21082;-79
2022/12/28 10:01:41;;;;;;;4.40;1.80;;;6.30;99.90;;;;;;4180780;28;20460;-80
2022/12/28 10:03:45;;;;;;;6.93;3.33;;;6.30;99.90;;;;;;4178792;28;20455;-80
2022/12/28 10:05:50;;;;;;;7.43;2.90;;;6.40;99.90;;;;;;4174552;28;20461;-80
2022/12/28 10:07:53;;;;;;;6.67;2.30;;;6.40;99.90;;;;;;4180728;28;20494;-80
2022/12/28 10:09:55;;;;;;;4.03;2.23;;;6.50;99.90;;;;;;4166765;28;21009;-80
2022/12/28 10:12:00;;;;;;;3.97;1.93;;;6.50;99.90;;;;;;4177002;28;21015;-81
2022/12/28 10:14:18;;;;;;;3.93;1.60;;;6.50;99.90;;;;;;4157474;28;20450;-80
2022/12/28 10:16:21;;;;;;;2.70;1.93;;;6.60;99.90;;;;;;4174880;28;20484;-80
2022/12/28 10:18:26;;;;;;;2.47;1.67;;;6.60;99.90;;;;;;4162024;28;20468;-80
2022/12/28 10:20:28;;;;;;;3.53;1.83;;;6.70;99.90;;;;;;4164954;28;21640;-81
2022/12/28 10:22:37;;;;;;;5.40;1.67;;;6.80;99.90;;;;;;4179797;28;21314;-81
2022/12/28 10:24:41;;;;;;;4.40;1.70;;;6.80;99.90;;;;;;4175425;28;20455;-81
2022/12/28 10:26:45;;;;;;;4.40;1.60;;;6.90;99.90;;;;;;4180600;28;20843;-81
2022/12/28 10:28:50;;;;;;;2.73;1.60;;;6.90;99.90;;;;;;4157395;28;20562;-81
2022/12/28 10:31:04;;;;;;;3.27;1.40;;;7.00;99.90;;;;;;4170553;28;20464;-81
2022/12/28 10:33:15;;;;;;;2.53;1.50;;;7.00;99.90;;;;;;4183029;28;20475;-81
2022/12/28 10:35:28;;;;;;;2.60;1.87;;;7.10;99.90;;;;;;4172986;28;21007;-81
2022/12/28 10:37:35;;;;;;;2.33;1.57;;;7.10;99.90;;;;;;4172654;28;20459;-82
2022/12/28 10:39:37;;;;;;;2.20;1.30;;;7.10;99.90;;;;;;4174547;28;20554;-79
2022/12/28 10:41:39;;;;;;;3.53;1.57;;;7.10;99.90;;;;;;4170317;28;20547;-79
2022/12/28 10:43:45;;;;;;;2.33;1.57;;;7.20;99.90;;;;;;4175222;28;20525;-79
2022/12/28 10:45:50;;;;;;;4.27;1.67;;;7.20;99.90;;;;;;4155044;28;20458;-79
2022/12/28 10:47:55;;;;;;;6.03;1.83;;;7.20;99.90;;;;;;4175282;28;20600;-79
2022/12/28 10:49:57;;;;;;;2.90;1.50;;;7.30;99.90;;;;;;4157618;28;20471;-79
2022/12/28 10:52:02;;;;;;;4.20;1.60;;;7.30;99.90;;;;;;4174026;28;20986;-79
2022/12/28 10:54:24;;;;;;;3.83;1.50;;;7.40;99.90;;;;;;4172431;28;20481;-81
2022/12/28 10:56:28;;;;;;;2.47;1.40;;;7.40;99.90;;;;;;4157272;28;20565;-81
2022/12/28 10:58:30;;;;;;;3.53;1.60;;;7.40;99.90;;;;;;4175191;28;20732;-82
2022/12/28 11:00:32;;;;;;;5.57;2.37;;;7.40;99.90;;;;;;4155806;28;20473;-84
2022/12/28 11:02:34;;;;;;;7.83;4.07;;;7.40;99.90;;;;;;4166510;28;20465;-84
2022/12/28 11:04:36;;;;;;;3.77;2.10;;;7.40;99.90;;;;;;4168627;28;20462;-82
2022/12/28 11:06:52;;;;;;;3.00;1.67;;;7.40;99.90;;;;;;4166691;28;20473;-83
2022/12/28 11:09:13;;;;;;;3.50;1.70;;;7.50;99.90;;;;;;4175823;28;20493;-81
2022/12/28 11:11:20;;;;;;;3.57;1.40;;;7.50;99.90;;;;;;4174276;28;20456;-81
2022/12/28 11:13:22;;;;;;;2.97;1.50;;;7.50;99.90;;;;;;4186501;28;20863;-80
2022/12/28 11:15:27;;;;;;;2.93;1.20;;;7.60;99.90;;;;;;4180145;28;20449;-81
2022/12/28 11:17:36;;;;;;;3.70;1.30;;;7.60;99.90;;;;;;4179363;28;20980;-80
2022/12/28 11:19:38;;;;;;;2.97;1.73;;;7.50;99.90;;;;;;4179142;28;20496;-80
2022/12/28 11:21:41;;;;;;;3.60;1.70;;;7.70;99.90;;;;;;4164776;28;20465;-81
2022/12/28 11:23:44;;;;;;;3.53;1.70;;;7.60;99.90;;;;;;4176575;28;20457;-81